Liverpool, Pennsylvania
Current Conditions -  °F | °C
As of 6:38 AM on Saturday 20 Dec 2014 (Local Time) from KSEG Reporting Station
Overcast Overcast  
Wind Chill: 25°   Ceiling: 2900
Heat Index: 30°   Visibility: 10mi
Dew Point: 19°   Wind: 5mph
Humidity: 64%   Direction: 320°NW
Pressure: 30.26"   Gusts: NA
Location:  40.57°N, 76.99°W
Report Text: KSEG 201138Z AUTO 32004KT 10SM OVC029 M01/M07 A3026 RMK AO2 T10111072
Loading
Personal Weather Stations






























Interactive Weather Map New forecast layout! Learn more

10-Day Weather Forecast

Advertisements
Track Severe Weather on mobile